sensor_id;sensor_type;location;lat;lon;timestamp;pressure;altitude;pressure_sealevel;temperature;humidity
72428;BME280;60419;48.880;18.036;2023-06-22T00:01:38;99299.13;;;21.47;77.45
72428;BME280;60419;48.880;18.036;2023-06-22T00:04:24;99320.25;;;21.69;76.68
72428;BME280;60419;48.880;18.036;2023-06-22T00:07:10;99327.41;;;21.78;76.05
72428;BME280;60419;48.880;18.036;2023-06-22T00:09:56;99337.81;;;21.61;76.67
72428;BME280;60419;48.880;18.036;2023-06-22T00:12:41;99348.81;;;21.61;76.93
72428;BME280;60419;48.880;18.036;2023-06-22T00:15:27;99353.91;;;21.10;77.98
72428;BME280;60419;48.880;18.036;2023-06-22T00:18:12;99368.56;;;20.48;80.53
72428;BME280;60419;48.880;18.036;2023-06-22T00:20:59;99374.59;;;19.44;86.74
72428;BME280;60419;48.880;18.036;2023-06-22T00:23:45;99379.03;;;20.23;82.13
72428;BME280;60419;48.880;18.036;2023-06-22T00:26:30;99373.28;;;20.71;80.34
72428;BME280;60419;48.880;18.036;2023-06-22T00:29:16;99373.66;;;20.69;80.23
72428;BME280;60419;48.880;18.036;2023-06-22T00:32:02;99373.34;;;20.74;80.27
72428;BME280;60419;48.880;18.036;2023-06-22T00:34:47;99380.66;;;20.90;78.95
72428;BME280;60419;48.880;18.036;2023-06-22T00:37:33;99381.34;;;20.83;78.77
72428;BME280;60419;48.880;18.036;2023-06-22T00:40:18;99385.81;;;20.49;80.12
72428;BME280;60419;48.880;18.036;2023-06-22T00:43:06;99380.16;;;19.48;85.22
72428;BME280;60419;48.880;18.036;2023-06-22T00:45:52;99381.41;;;20.44;81.79
72428;BME280;60419;48.880;18.036;2023-06-22T00:48:38;99380.19;;;20.22;82.41
72428;BME280;60419;48.880;18.036;2023-06-22T00:51:25;99388.06;;;20.43;82.06
72428;BME280;60419;48.880;18.036;2023-06-22T00:54:11;99387.34;;;20.46;81.35
72428;BME280;60419;48.880;18.036;2023-06-22T00:56:58;99386.88;;;20.87;79.97
72428;BME280;60419;48.880;18.036;2023-06-22T00:59:47;99386.69;;;20.76;79.79
72428;BME280;60419;48.880;18.036;2023-06-22T01:02:33;99395.22;;;19.22;85.77
72428;BME280;60419;48.880;18.036;2023-06-22T01:05:20;99390.38;;;19.16;86.71
72428;BME280;60419;48.880;18.036;2023-06-22T01:08:34;99376.56;;;19.79;83.61
72428;BME280;60419;48.880;18.036;2023-06-22T01:11:39;99366.56;;;18.56;89.66
72428;BME280;60419;48.880;18.036;2023-06-22T01:17:19;99361.63;;;18.62;89.88
72428;BME280;60419;48.880;18.036;2023-06-22T01:20:07;99352.25;;;19.42;85.62
72428;BME280;60419;48.880;18.036;2023-06-22T01:26:25;99352.44;;;20.27;80.82
72428;BME280;60419;48.880;18.036;2023-06-22T01:29:14;99359.19;;;20.49;79.28
72428;BME280;60419;48.880;18.036;2023-06-22T01:32:01;99352.22;;;20.78;78.25
72428;BME280;60419;48.880;18.036;2023-06-22T01:34:48;99346.69;;;20.75;77.72
72428;BME280;60419;48.880;18.036;2023-06-22T01:37:36;99342.66;;;20.69;78.37
72428;BME280;60419;48.880;18.036;2023-06-22T01:40:21;99338.94;;;20.57;79.74
72428;BME280;60419;48.880;18.036;2023-06-22T01:43:08;99331.19;;;20.63;79.45
72428;BME280;60419;48.880;18.036;2023-06-22T01:45:55;99332.66;;;20.80;78.20
72428;BME280;60419;48.880;18.036;2023-06-22T01:48:41;99308.69;;;19.72;80.15
72428;BME280;60419;48.880;18.036;2023-06-22T01:51:27;99332.19;;;18.71;87.65
72428;BME280;60419;48.880;18.036;2023-06-22T01:54:12;99327.88;;;19.37;85.49
72428;BME280;60419;48.880;18.036;2023-06-22T01:56:59;99328.41;;;19.78;82.27
72428;BME280;60419;48.880;18.036;2023-06-22T01:59:52;99333.59;;;19.83;82.16
72428;BME280;60419;48.880;18.036;2023-06-22T02:03:11;99338.88;;;20.34;80.02
72428;BME280;60419;48.880;18.036;2023-06-22T02:06:03;99340.59;;;20.62;79.24
72428;BME280;60419;48.880;18.036;2023-06-22T02:08:53;99352.25;;;20.36;79.71
72428;BME280;60419;48.880;18.036;2023-06-22T02:11:41;99345.81;;;20.28;80.29
72428;BME280;60419;48.880;18.036;2023-06-22T02:14:28;99323.69;;;19.43;83.05
72428;BME280;60419;48.880;18.036;2023-06-22T02:17:14;99339.06;;;18.21;91.11
72428;BME280;60419;48.880;18.036;2023-06-22T02:20:02;99321.75;;;18.61;90.15
72428;BME280;60419;48.880;18.036;2023-06-22T02:22:49;99344.47;;;19.44;85.67
72428;BME280;60419;48.880;18.036;2023-06-22T02:25:35;99328.38;;;19.43;85.53
72428;BME280;60419;48.880;18.036;2023-06-22T02:28:20;99324.50;;;19.60;83.46
72428;BME280;60419;48.880;18.036;2023-06-22T02:31:06;99310.19;;;18.83;86.76
72428;BME280;60419;48.880;18.036;2023-06-22T02:33:51;99335.91;;;18.95;86.83
72428;BME280;60419;48.880;18.036;2023-06-22T02:36:36;99347.63;;;19.11;86.15
72428;BME280;60419;48.880;18.036;2023-06-22T02:39:25;99336.72;;;18.51;89.68
72428;BME280;60419;48.880;18.036;2023-06-22T02:42:11;99336.81;;;18.11;91.39
72428;BME280;60419;48.880;18.036;2023-06-22T02:44:56;99344.97;;;18.23;92.14
72428;BME280;60419;48.880;18.036;2023-06-22T02:47:41;99351.22;;;19.15;88.40
72428;BME280;60419;48.880;18.036;2023-06-22T02:50:27;99356.38;;;19.52;86.05
72428;BME280;60419;48.880;18.036;2023-06-22T02:53:12;99343.31;;;20.00;82.71
72428;BME280;60419;48.880;18.036;2023-06-22T02:55:58;99345.78;;;20.05;81.86
72428;BME280;60419;48.880;18.036;2023-06-22T02:58:43;99357.22;;;20.11;81.96
72428;BME280;60419;48.880;18.036;2023-06-22T03:01:29;99348.16;;;20.46;80.31
72428;BME280;60419;48.880;18.036;2023-06-22T03:04:15;99344.16;;;20.66;79.45
72428;BME280;60419;48.880;18.036;2023-06-22T03:07:01;99352.91;;;20.72;78.33
72428;BME280;60419;48.880;18.036;2023-06-22T03:09:46;99351.41;;;19.73;82.07
72428;BME280;60419;48.880;18.036;2023-06-22T03:12:32;99342.41;;;19.06;85.67
72428;BME280;60419;48.880;18.036;2023-06-22T03:15:17;99347.22;;;19.44;85.03
72428;BME280;60419;48.880;18.036;2023-06-22T03:18:02;99352.19;;;19.39;84.68
72428;BME280;60419;48.880;18.036;2023-06-22T03:20:48;99352.97;;;19.39;86.00
72428;BME280;60419;48.880;18.036;2023-06-22T03:23:33;99352.81;;;20.45;80.54
72428;BME280;60419;48.880;18.036;2023-06-22T03:26:19;99344.25;;;20.70;77.51
72428;BME280;60419;48.880;18.036;2023-06-22T03:29:04;99353.72;;;21.48;75.32
72428;BME280;60419;48.880;18.036;2023-06-22T03:31:50;99358.97;;;21.87;74.89
72428;BME280;60419;48.880;18.036;2023-06-22T03:34:35;99348.13;;;22.35;72.48
72428;BME280;60419;48.880;18.036;2023-06-22T03:37:21;99359.50;;;21.70;72.40
72428;BME280;60419;48.880;18.036;2023-06-22T03:40:07;99361.63;;;21.50;74.61
72428;BME280;60419;48.880;18.036;2023-06-22T03:42:52;99373.25;;;21.97;74.14
72428;BME280;60419;48.880;18.036;2023-06-22T03:45:37;99354.59;;;22.54;70.35
72428;BME280;60419;48.880;18.036;2023-06-22T03:48:23;99356.41;;;21.18;73.96
72428;BME280;60419;48.880;18.036;2023-06-22T03:51:08;99367.59;;;21.29;76.71
72428;BME280;60419;48.880;18.036;2023-06-22T03:53:54;99362.72;;;21.19;75.24
72428;BME280;60419;48.880;18.036;2023-06-22T03:56:39;99374.44;;;21.69;75.73
72428;BME280;60419;48.880;18.036;2023-06-22T03:59:25;99376.19;;;22.11;73.00
72428;BME280;60419;48.880;18.036;2023-06-22T04:02:10;99390.03;;;22.18;71.05
72428;BME280;60419;48.880;18.036;2023-06-22T04:04:56;99402.13;;;21.57;71.63
72428;BME280;60419;48.880;18.036;2023-06-22T04:07:41;99389.69;;;22.23;71.96
72428;BME280;60419;48.880;18.036;2023-06-22T04:10:27;99377.56;;;18.16;88.27
72428;BME280;60419;48.880;18.036;2023-06-22T04:13:12;99363.81;;;17.72;93.18
72428;BME280;60419;48.880;18.036;2023-06-22T04:15:57;99360.34;;;18.28;92.21
72428;BME280;60419;48.880;18.036;2023-06-22T04:18:43;99369.25;;;18.69;89.08
72428;BME280;60419;48.880;18.036;2023-06-22T04:21:28;99364.16;;;17.83;92.78
72428;BME280;60419;48.880;18.036;2023-06-22T04:24:14;99343.78;;;17.68;93.51
72428;BME280;60419;48.880;18.036;2023-06-22T04:26:59;99367.31;;;17.85;92.37
72428;BME280;60419;48.880;18.036;2023-06-22T04:29:47;99369.88;;;18.78;92.43
72428;BME280;60419;48.880;18.036;2023-06-22T04:32:34;99369.22;;;20.22;82.24
72428;BME280;60419;48.880;18.036;2023-06-22T04:35:25;99387.03;;;20.32;79.42
72428;BME280;60419;48.880;18.036;2023-06-22T04:38:12;99386.03;;;21.05;78.17
72428;BME280;60419;48.880;18.036;2023-06-22T04:40:58;99367.69;;;22.23;72.18
72428;BME280;60419;48.880;18.036;2023-06-22T04:43:46;99375.53;;;22.25;71.26
72428;BME280;60419;48.880;18.036;2023-06-22T04:46:39;99384.88;;;22.17;71.28
72428;BME280;60419;48.880;18.036;2023-06-22T04:49:26;99389.69;;;22.23;71.05
72428;BME280;60419;48.880;18.036;2023-06-22T04:52:18;99393.41;;;21.78;72.69
72428;BME280;60419;48.880;18.036;2023-06-22T04:55:05;99382.22;;;22.24;71.00
72428;BME280;60419;48.880;18.036;2023-06-22T04:57:51;99377.91;;;22.64;69.54
72428;BME280;60419;48.880;18.036;2023-06-22T05:00:37;99399.03;;;22.90;68.43
72428;BME280;60419;48.880;18.036;2023-06-22T05:03:22;99402.69;;;23.53;66.26
72428;BME280;60419;48.880;18.036;2023-06-22T05:06:07;99405.88;;;21.71;71.53
72428;BME280;60419;48.880;18.036;2023-06-22T05:08:54;99401.03;;;19.88;81.21
72428;BME280;60419;48.880;18.036;2023-06-22T05:11:44;99404.81;;;18.40;87.58
72428;BME280;60419;48.880;18.036;2023-06-22T05:14:29;99420.66;;;19.39;84.09
72428;BME280;60419;48.880;18.036;2023-06-22T05:17:15;99413.47;;;18.42;88.01
72428;BME280;60419;48.880;18.036;2023-06-22T05:20:04;99420.06;;;19.81;81.96
72428;BME280;60419;48.880;18.036;2023-06-22T05:22:51;99417.47;;;20.85;78.88
72428;BME280;60419;48.880;18.036;2023-06-22T05:25:36;99409.97;;;20.62;77.27
72428;BME280;60419;48.880;18.036;2023-06-22T05:28:22;99405.78;;;21.38;73.87
72428;BME280;60419;48.880;18.036;2023-06-22T05:31:09;99407.88;;;20.75;76.75
72428;BME280;60419;48.880;18.036;2023-06-22T05:33:55;99410.38;;;19.67;81.34
72428;BME280;60419;48.880;18.036;2023-06-22T05:36:41;99414.84;;;20.30;78.54
72428;BME280;60419;48.880;18.036;2023-06-22T05:39:29;99421.25;;;19.64;82.04
72428;BME280;60419;48.880;18.036;2023-06-22T05:42:14;99407.38;;;19.92;79.79
72428;BME280;60419;48.880;18.036;2023-06-22T05:44:59;99399.06;;;18.30;88.84
72428;BME280;60419;48.880;18.036;2023-06-22T05:47:45;99412.75;;;17.65;94.12
72428;BME280;60419;48.880;18.036;2023-06-22T05:50:30;99416.06;;;18.79;87.98
72428;BME280;60419;48.880;18.036;2023-06-22T05:53:16;99428.19;;;19.26;84.57
72428;BME280;60419;48.880;18.036;2023-06-22T05:56:01;99424.63;;;18.21;90.61
72428;BME280;60419;48.880;18.036;2023-06-22T05:58:46;99416.06;;;19.27;85.10
72428;BME280;60419;48.880;18.036;2023-06-22T06:01:32;99398.53;;;20.18;78.79
72428;BME280;60419;48.880;18.036;2023-06-22T06:04:21;99407.22;;;19.85;81.42
72428;BME280;60419;48.880;18.036;2023-06-22T06:07:06;99388.44;;;18.56;85.74
72428;BME280;60419;48.880;18.036;2023-06-22T06:09:52;99431.09;;;17.64;94.69
72428;BME280;60419;48.880;18.036;2023-06-22T06:12:37;99415.91;;;18.04;95.16
72428;BME280;60419;48.880;18.036;2023-06-22T06:15:23;99428.41;;;19.52;87.06
72428;BME280;60419;48.880;18.036;2023-06-22T06:18:08;99427.09;;;20.56;80.38
72428;BME280;60419;48.880;18.036;2023-06-22T06:20:54;99435.41;;;17.53;94.32
72428;BME280;60419;48.880;18.036;2023-06-22T06:23:39;99406.03;;;18.27;91.75
72428;BME280;60419;48.880;18.036;2023-06-22T06:26:24;99426.22;;;19.10;89.59
72428;BME280;60419;48.880;18.036;2023-06-22T06:29:14;99418.50;;;19.99;82.64
72428;BME280;60419;48.880;18.036;2023-06-22T06:32:01;99417.19;;;19.93;81.51
72428;BME280;60419;48.880;18.036;2023-06-22T06:34:47;99412.47;;;20.09;82.88
72428;BME280;60419;48.880;18.036;2023-06-22T06:37:37;99419.94;;;19.42;85.73
72428;BME280;60419;48.880;18.036;2023-06-22T06:40:23;99414.09;;;19.59;86.22
72428;BME280;60419;48.880;18.036;2023-06-22T06:43:08;99410.03;;;20.66;79.38
72428;BME280;60419;48.880;18.036;2023-06-22T06:45:53;99401.97;;;20.34;80.22
72428;BME280;60419;48.880;18.036;2023-06-22T06:48:39;99404.72;;;21.19;77.09
72428;BME280;60419;48.880;18.036;2023-06-22T06:51:24;99401.91;;;20.31;79.98
72428;BME280;60419;48.880;18.036;2023-06-22T06:54:10;99414.31;;;20.87;79.08
72428;BME280;60419;48.880;18.036;2023-06-22T06:56:55;99408.25;;;21.20;77.03
72428;BME280;60419;48.880;18.036;2023-06-22T06:59:41;99405.53;;;19.61;82.86
72428;BME280;60419;48.880;18.036;2023-06-22T07:02:26;99412.63;;;20.78;80.15
72428;BME280;60419;48.880;18.036;2023-06-22T07:05:14;99407.09;;;19.97;83.05
72428;BME280;60419;48.880;18.036;2023-06-22T07:08:00;99397.94;;;20.28;80.97
72428;BME280;60419;48.880;18.036;2023-06-22T07:10:46;99402.34;;;21.71;75.54
72428;BME280;60419;48.880;18.036;2023-06-22T07:13:31;99406.88;;;21.10;77.06
72428;BME280;60419;48.880;18.036;2023-06-22T07:16:16;99399.31;;;19.99;82.87
72428;BME280;60419;48.880;18.036;2023-06-22T07:19:02;99393.69;;;21.42;76.75
72428;BME280;60419;48.880;18.036;2023-06-22T07:21:47;99404.66;;;20.50;80.63
72428;BME280;60419;48.880;18.036;2023-06-22T07:24:33;99398.72;;;20.29;82.67
72428;BME280;60419;48.880;18.036;2023-06-22T07:27:18;99391.94;;;21.84;76.00
72428;BME280;60419;48.880;18.036;2023-06-22T07:30:05;99381.94;;;21.72;75.12
72428;BME280;60419;48.880;18.036;2023-06-22T07:32:50;99382.66;;;20.47;81.07
72428;BME280;60419;48.880;18.036;2023-06-22T07:35:36;99378.00;;;21.43;77.65
72428;BME280;60419;48.880;18.036;2023-06-22T07:38:21;99382.75;;;20.34;81.33
72428;BME280;60419;48.880;18.036;2023-06-22T07:41:07;99371.78;;;20.34;81.78
72428;BME280;60419;48.880;18.036;2023-06-22T07:43:52;99387.31;;;20.89;80.40
72428;BME280;60419;48.880;18.036;2023-06-22T07:46:37;99385.09;;;20.52;81.58
72428;BME280;60419;48.880;18.036;2023-06-22T07:49:23;99382.06;;;21.03;78.33
72428;BME280;60419;48.880;18.036;2023-06-22T07:52:08;99374.66;;;20.61;79.79
72428;BME280;60419;48.880;18.036;2023-06-22T07:54:54;99381.09;;;21.41;77.65
72428;BME280;60419;48.880;18.036;2023-06-22T07:57:39;99373.09;;;22.53;72.53
72428;BME280;60419;48.880;18.036;2023-06-22T08:00:27;99377.38;;;23.40;68.63
72428;BME280;60419;48.880;18.036;2023-06-22T08:03:12;99369.81;;;23.92;66.81
72428;BME280;60419;48.880;18.036;2023-06-22T08:05:58;99372.72;;;24.21;65.57
72428;BME280;60419;48.880;18.036;2023-06-22T08:08:44;99370.44;;;24.55;63.64
72428;BME280;60419;48.880;18.036;2023-06-22T08:11:33;99367.69;;;24.55;64.07
72428;BME280;60419;48.880;18.036;2023-06-22T08:14:19;99369.91;;;22.48;71.43
72428;BME280;60419;48.880;18.036;2023-06-22T08:17:04;99370.06;;;23.62;67.62
72428;BME280;60419;48.880;18.036;2023-06-22T08:19:50;99363.88;;;23.79;67.19
72428;BME280;60419;48.880;18.036;2023-06-22T08:22:36;99368.16;;;23.73;67.41
72428;BME280;60419;48.880;18.036;2023-06-22T08:25:24;99367.19;;;24.21;66.52
72428;BME280;60419;48.880;18.036;2023-06-22T08:28:09;99376.78;;;24.73;64.96
72428;BME280;60419;48.880;18.036;2023-06-22T08:30:55;99369.66;;;24.65;63.87
72428;BME280;60419;48.880;18.036;2023-06-22T08:33:40;99377.22;;;22.70;69.82
72428;BME280;60419;48.880;18.036;2023-06-22T08:36:26;99373.84;;;22.88;71.17
72428;BME280;60419;48.880;18.036;2023-06-22T08:39:14;99375.41;;;24.03;66.03
72428;BME280;60419;48.880;18.036;2023-06-22T08:41:59;99373.22;;;24.80;63.65
72428;BME280;60419;48.880;18.036;2023-06-22T08:44:44;99376.03;;;25.09;60.44
72428;BME280;60419;48.880;18.036;2023-06-22T08:47:30;99368.09;;;25.25;60.39
72428;BME280;60419;48.880;18.036;2023-06-22T08:50:15;99373.56;;;25.72;59.97
72428;BME280;60419;48.880;18.036;2023-06-22T08:53:01;99359.84;;;25.07;61.52
72428;BME280;60419;48.880;18.036;2023-06-22T08:55:46;99350.19;;;24.08;63.50
72428;BME280;60419;48.880;18.036;2023-06-22T08:58:31;99350.13;;;23.94;62.54
72428;BME280;60419;48.880;18.036;2023-06-22T09:01:17;99343.81;;;23.93;61.58
72428;BME280;60419;48.880;18.036;2023-06-22T09:04:02;99345.44;;;24.05;62.32
72428;BME280;60419;48.880;18.036;2023-06-22T09:06:49;99331.97;;;23.82;62.61
72428;BME280;60419;48.880;18.036;2023-06-22T09:09:35;99316.66;;;24.02;60.46
72428;BME280;60419;48.880;18.036;2023-06-22T09:12:21;99332.38;;;23.87;62.46
72428;BME280;60419;48.880;18.036;2023-06-22T09:15:10;99333.75;;;24.37;61.21
72428;BME280;60419;48.880;18.036;2023-06-22T09:17:56;99344.78;;;25.44;58.37
72428;BME280;60419;48.880;18.036;2023-06-22T09:20:42;99336.72;;;26.00;57.42
72428;BME280;60419;48.880;18.036;2023-06-22T09:23:28;99338.84;;;25.46;59.06
72428;BME280;60419;48.880;18.036;2023-06-22T09:26:14;99333.53;;;26.05;58.41
72428;BME280;60419;48.880;18.036;2023-06-22T09:28:59;99332.22;;;24.89;61.15
72428;BME280;60419;48.880;18.036;2023-06-22T09:31:44;99325.88;;;24.78;61.64
72428;BME280;60419;48.880;18.036;2023-06-22T09:34:30;99317.50;;;25.60;59.97
72428;BME280;60419;48.880;18.036;2023-06-22T09:37:16;99308.50;;;26.30;58.30
72428;BME280;60419;48.880;18.036;2023-06-22T09:40:02;99314.72;;;25.75;60.37
72428;BME280;60419;48.880;18.036;2023-06-22T09:42:53;99314.47;;;26.25;58.50
72428;BME280;60419;48.880;18.036;2023-06-22T09:45:38;99310.00;;;25.50;60.03
72428;BME280;60419;48.880;18.036;2023-06-22T09:48:24;99310.84;;;25.33;60.58
72428;BME280;60419;48.880;18.036;2023-06-22T09:51:09;99308.44;;;26.41;58.97
72428;BME280;60419;48.880;18.036;2023-06-22T09:53:54;99322.66;;;26.43;58.29
72428;BME280;60419;48.880;18.036;2023-06-22T09:56:40;99314.88;;;26.16;58.96
72428;BME280;60419;48.880;18.036;2023-06-22T09:59:25;99305.28;;;26.91;56.97
72428;BME280;60419;48.880;18.036;2023-06-22T10:02:11;99310.44;;;26.92;57.17
72428;BME280;60419;48.880;18.036;2023-06-22T10:04:57;99300.63;;;26.81;55.22
72428;BME280;60419;48.880;18.036;2023-06-22T10:07:42;99291.63;;;26.06;56.67
72428;BME280;60419;48.880;18.036;2023-06-22T10:10:29;99286.00;;;26.21;57.90
72428;BME280;60419;48.880;18.036;2023-06-22T10:13:14;99290.44;;;26.04;58.87
72428;BME280;60419;48.880;18.036;2023-06-22T10:16:00;99285.22;;;26.17;57.11
72428;BME280;60419;48.880;18.036;2023-06-22T10:18:45;99284.66;;;25.80;57.71
72428;BME280;60419;48.880;18.036;2023-06-22T10:21:30;99282.84;;;26.15;56.95
72428;BME280;60419;48.880;18.036;2023-06-22T10:24:16;99276.94;;;26.13;56.98
72428;BME280;60419;48.880;18.036;2023-06-22T10:27:02;99270.09;;;26.36;56.40
72428;BME280;60419;48.880;18.036;2023-06-22T10:29:47;99268.16;;;26.81;55.76
72428;BME280;60419;48.880;18.036;2023-06-22T10:32:33;99267.63;;;26.45;57.16
72428;BME280;60419;48.880;18.036;2023-06-22T10:35:18;99254.63;;;26.90;55.95
72428;BME280;60419;48.880;18.036;2023-06-22T10:38:04;99261.75;;;26.39;56.55
72428;BME280;60419;48.880;18.036;2023-06-22T10:40:49;99261.19;;;27.42;55.33
72428;BME280;60419;48.880;18.036;2023-06-22T10:43:35;99247.44;;;27.31;55.31
72428;BME280;60419;48.880;18.036;2023-06-22T10:46:20;99254.13;;;27.37;54.60
72428;BME280;60419;48.880;18.036;2023-06-22T10:49:06;99246.97;;;28.05;53.31
72428;BME280;60419;48.880;18.036;2023-06-22T10:51:51;99245.88;;;28.49;51.61
72428;BME280;60419;48.880;18.036;2023-06-22T10:54:37;99254.06;;;28.56;50.71
72428;BME280;60419;48.880;18.036;2023-06-22T10:57:23;99251.44;;;28.22;52.17
72428;BME280;60419;48.880;18.036;2023-06-22T11:00:08;99254.53;;;28.78;51.58
72428;BME280;60419;48.880;18.036;2023-06-22T11:02:54;99250.13;;;28.30;53.15
72428;BME280;60419;48.880;18.036;2023-06-22T11:05:39;99242.50;;;28.11;55.05
72428;BME280;60419;48.880;18.036;2023-06-22T11:08:25;99240.59;;;29.02;53.07
72428;BME280;60419;48.880;18.036;2023-06-22T11:11:10;99240.13;;;29.47;53.30
72428;BME280;60419;48.880;18.036;2023-06-22T11:13:56;99245.44;;;29.78;50.46
72428;BME280;60419;48.880;18.036;2023-06-22T11:16:41;99232.50;;;28.68;52.73
72428;BME280;60419;48.880;18.036;2023-06-22T11:19:27;99225.69;;;28.92;52.00
72428;BME280;60419;48.880;18.036;2023-06-22T11:22:12;99222.78;;;28.52;53.50
72428;BME280;60419;48.880;18.036;2023-06-22T11:24:58;99217.78;;;29.10;52.19
72428;BME280;60419;48.880;18.036;2023-06-22T11:27:43;99207.91;;;29.66;50.20
72428;BME280;60419;48.880;18.036;2023-06-22T11:30:29;99213.22;;;29.60;50.02
72428;BME280;60419;48.880;18.036;2023-06-22T11:33:14;99205.16;;;30.18;49.12
72428;BME280;60419;48.880;18.036;2023-06-22T11:36:00;99205.66;;;29.97;49.14
72428;BME280;60419;48.880;18.036;2023-06-22T11:38:45;99191.31;;;30.15;48.98
72428;BME280;60419;48.880;18.036;2023-06-22T11:41:31;99192.00;;;30.52;49.03
72428;BME280;60419;48.880;18.036;2023-06-22T11:44:16;99184.81;;;30.83;48.73
72428;BME280;60419;48.880;18.036;2023-06-22T11:47:01;99189.53;;;31.16;49.22
72428;BME280;60419;48.880;18.036;2023-06-22T11:49:49;99186.28;;;30.26;48.74
72428;BME280;60419;48.880;18.036;2023-06-22T11:52:34;99175.41;;;31.07;46.35
72428;BME280;60419;48.880;18.036;2023-06-22T11:55:21;99168.94;;;30.97;47.05
72428;BME280;60419;48.880;18.036;2023-06-22T11:58:06;99166.28;;;31.48;46.92
72428;BME280;60419;48.880;18.036;2023-06-22T12:00:52;99158.59;;;31.52;45.01
72428;BME280;60419;48.880;18.036;2023-06-22T12:03:37;99170.19;;;30.79;46.79
72428;BME280;60419;48.880;18.036;2023-06-22T12:06:22;99164.25;;;30.32;48.95
72428;BME280;60419;48.880;18.036;2023-06-22T12:09:08;99161.53;;;30.61;48.54
72428;BME280;60419;48.880;18.036;2023-06-22T12:11:53;99148.13;;;31.27;47.90
72428;BME280;60419;48.880;18.036;2023-06-22T12:14:38;99151.19;;;31.97;46.81
72428;BME280;60419;48.880;18.036;2023-06-22T12:17:24;99149.88;;;31.63;47.21
72428;BME280;60419;48.880;18.036;2023-06-22T12:20:09;99143.63;;;31.04;45.77
72428;BME280;60419;48.880;18.036;2023-06-22T12:22:55;99148.38;;;31.33;47.22
72428;BME280;60419;48.880;18.036;2023-06-22T12:25:45;99144.44;;;31.04;47.04
72428;BME280;60419;48.880;18.036;2023-06-22T12:28:30;99135.06;;;30.82;47.98
72428;BME280;60419;48.880;18.036;2023-06-22T12:31:17;99133.63;;;31.19;49.04
72428;BME280;60419;48.880;18.036;2023-06-22T12:34:02;99140.16;;;31.93;45.86
72428;BME280;60419;48.880;18.036;2023-06-22T12:36:48;99140.94;;;31.94;46.75
72428;BME280;60419;48.880;18.036;2023-06-22T12:39:33;99131.22;;;31.85;45.90
72428;BME280;60419;48.880;18.036;2023-06-22T12:42:19;99134.66;;;31.89;45.66
72428;BME280;60419;48.880;18.036;2023-06-22T12:45:06;99132.56;;;31.68;47.76
72428;BME280;60419;48.880;18.036;2023-06-22T12:47:52;99130.72;;;31.10;48.36
72428;BME280;60419;48.880;18.036;2023-06-22T12:50:37;99131.56;;;30.94;47.78
72428;BME280;60419;48.880;18.036;2023-06-22T12:53:22;99130.78;;;31.61;46.42
72428;BME280;60419;48.880;18.036;2023-06-22T12:56:08;99127.06;;;31.90;44.61
72428;BME280;60419;48.880;18.036;2023-06-22T12:58:54;99119.03;;;32.40;43.20
72428;BME280;60419;48.880;18.036;2023-06-22T13:01:39;99118.66;;;32.16;42.90
72428;BME280;60419;48.880;18.036;2023-06-22T13:04:25;99108.41;;;32.12;43.07
72428;BME280;60419;48.880;18.036;2023-06-22T13:07:10;99099.47;;;32.40;41.99
72428;BME280;60419;48.880;18.036;2023-06-22T13:09:56;99099.66;;;32.80;40.75
72428;BME280;60419;48.880;18.036;2023-06-22T13:12:41;99096.16;;;32.67;40.78
72428;BME280;60419;48.880;18.036;2023-06-22T13:15:28;99104.84;;;32.91;40.54
72428;BME280;60419;48.880;18.036;2023-06-22T13:18:13;99107.41;;;32.54;40.80
72428;BME280;60419;48.880;18.036;2023-06-22T13:20:59;99114.34;;;32.93;40.69
72428;BME280;60419;48.880;18.036;2023-06-22T13:23:45;99117.75;;;32.66;40.21
72428;BME280;60419;48.880;18.036;2023-06-22T13:26:30;99107.78;;;33.31;39.95
72428;BME280;60419;48.880;18.036;2023-06-22T13:29:15;99107.13;;;33.05;38.88
72428;BME280;60419;48.880;18.036;2023-06-22T13:32:01;99106.56;;;32.88;38.61
72428;BME280;60419;48.880;18.036;2023-06-22T13:34:46;99106.75;;;32.94;38.57
72428;BME280;60419;48.880;18.036;2023-06-22T13:37:32;99108.56;;;32.88;38.25
72428;BME280;60419;48.880;18.036;2023-06-22T13:40:17;99098.28;;;33.60;37.94
72428;BME280;60419;48.880;18.036;2023-06-22T13:43:02;99103.97;;;33.16;36.49
72428;BME280;60419;48.880;18.036;2023-06-22T13:45:48;99101.44;;;33.49;36.30
72428;BME280;60419;48.880;18.036;2023-06-22T13:48:33;99098.34;;;32.94;35.76
72428;BME280;60419;48.880;18.036;2023-06-22T13:51:18;99096.69;;;32.74;36.91
72428;BME280;60419;48.880;18.036;2023-06-22T13:54:04;99098.00;;;32.48;34.00
72428;BME280;60419;48.880;18.036;2023-06-22T13:56:49;99101.16;;;33.47;33.06
72428;BME280;60419;48.880;18.036;2023-06-22T13:59:35;99100.59;;;33.30;33.31
72428;BME280;60419;48.880;18.036;2023-06-22T14:02:20;99091.94;;;33.87;32.02
72428;BME280;60419;48.880;18.036;2023-06-22T14:05:05;99088.03;;;32.82;33.82
72428;BME280;60419;48.880;18.036;2023-06-22T14:07:51;99073.84;;;33.70;31.30
72428;BME280;60419;48.880;18.036;2023-06-22T14:10:37;99076.13;;;33.53;31.32
72428;BME280;60419;48.880;18.036;2023-06-22T14:13:22;99075.50;;;34.08;30.95
72428;BME280;60419;48.880;18.036;2023-06-22T14:16:08;99077.47;;;33.79;32.20
72428;BME280;60419;48.880;18.036;2023-06-22T14:18:53;99087.59;;;33.95;32.49
72428;BME280;60419;48.880;18.036;2023-06-22T14:21:39;99076.47;;;33.64;32.38
72428;BME280;60419;48.880;18.036;2023-06-22T14:24:24;99059.78;;;34.19;31.99
72428;BME280;60419;48.880;18.036;2023-06-22T14:27:10;99060.88;;;34.77;31.50
72428;BME280;60419;48.880;18.036;2023-06-22T14:29:55;99055.38;;;34.92;30.89
72428;BME280;60419;48.880;18.036;2023-06-22T14:32:43;99055.50;;;34.98;31.27
72428;BME280;60419;48.880;18.036;2023-06-22T14:35:29;99055.53;;;34.79;30.74